Time;durP1;ratioP1;P1;durP2;ratioP2;P2;SDS_P1;SDS_P2;PMS_P1;PMS_P2;Temp;Humidity;BMP_temperature;BMP_pressure;BME280_temperature;BME280_humidity;BME280_pressure;Samples;Min_cycle;Max_cycle;Signal;HPM_P1;HPM_P2
2021/11/15 00:02:34;;;;;;;4.97;1.65;;;9.60;99.90;;;;;;5091544;28;20089;-73
2021/11/15 00:05:18;;;;;;;0.25;0.25;;;9.60;99.90;;;;;;5092235;28;20446;-72
2021/11/15 00:08:04;;;;;;;0.30;0.30;;;9.60;99.90;;;;;;5092500;28;20050;-72
2021/11/15 00:10:48;;;;;;;0.13;0.13;;;9.60;99.90;;;;;;5092533;28;20039;-72
2021/11/15 00:13:33;;;;;;;0.68;0.68;;;9.50;99.90;;;;;;5092661;28;20101;-72
2021/11/15 00:16:18;;;;;;;0.13;0.13;;;9.60;99.90;;;;;;5092714;28;20388;-72
2021/11/15 00:19:03;;;;;;;1.00;1.00;;;9.60;99.90;;;;;;5092146;28;20062;-72
2021/11/15 00:21:48;;;;;;;0.20;0.20;;;9.50;99.90;;;;;;5091253;28;20102;-72
2021/11/15 00:24:32;;;;;;;0.50;0.50;;;9.50;99.90;;;;;;5092512;28;20070;-72
2021/11/15 00:27:16;;;;;;;0.73;0.73;;;9.50;99.90;;;;;;5092087;28;20047;-73
2021/11/15 00:30:03;;;;;;;0.60;0.60;;;9.50;99.90;;;;;;5092480;28;20177;-72
2021/11/15 00:32:47;;;;;;;9.48;0.68;;;9.50;99.90;;;;;;5092413;28;20154;-72
2021/11/15 00:35:31;;;;;;;2.42;1.85;;;9.50;99.90;;;;;;5077267;28;20035;-72
2021/11/15 00:38:16;;;;;;;1.15;1.05;;;9.50;99.90;;;;;;5092331;28;20043;-72
2021/11/15 00:41:01;;;;;;;0.70;0.70;;;9.40;99.90;;;;;;5095834;28;20039;-72
2021/11/15 00:43:46;;;;;;;0.75;0.75;;;9.40;99.90;;;;;;5095474;28;20077;-72
2021/11/15 00:46:30;;;;;;;0.50;0.47;;;9.40;99.90;;;;;;5096382;28;20047;-72
2021/11/15 00:49:14;;;;;;;1.52;0.80;;;9.30;99.90;;;;;;5096309;28;20454;-72
2021/11/15 00:51:59;;;;;;;0.55;0.55;;;9.20;99.90;;;;;;5095889;28;20084;-73
2021/11/15 00:54:44;;;;;;;0.32;0.32;;;9.20;99.90;;;;;;5097084;28;20044;-73
2021/11/15 00:57:28;;;;;;;0.30;0.30;;;9.20;99.90;;;;;;5099393;28;20070;-73
2021/11/15 01:00:19;;;;;;;1.30;1.17;;;9.20;99.90;;;;;;5099394;28;20446;-72
2021/11/15 01:03:07;;;;;;;0.30;0.30;;;9.10;99.90;;;;;;5098431;28;20534;-73
2021/11/15 01:05:52;;;;;;;0.28;0.28;;;9.00;99.90;;;;;;5100102;28;20089;-72
2021/11/15 01:08:38;;;;;;;0.60;0.45;;;9.00;99.90;;;;;;5099067;28;20043;-73
2021/11/15 01:11:23;;;;;;;0.65;0.65;;;9.00;99.90;;;;;;5099124;28;20600;-73
2021/11/15 01:14:07;;;;;;;0.85;0.77;;;9.00;99.90;;;;;;5097926;28;20039;-73
2021/11/15 01:16:52;;;;;;;0.77;0.77;;;8.90;99.90;;;;;;5096264;28;20100;-73
2021/11/15 01:19:37;;;;;;;0.82;0.82;;;8.90;99.90;;;;;;5097921;28;20058;-73
2021/11/15 01:22:21;;;;;;;4.47;1.00;;;8.90;99.90;;;;;;5097809;28;20063;-73
2021/11/15 01:25:07;;;;;;;0.65;0.65;;;8.90;99.90;;;;;;5098043;28;20035;-73
2021/11/15 01:27:52;;;;;;;0.30;0.30;;;8.80;99.90;;;;;;5097017;28;20042;-73
2021/11/15 01:30:38;;;;;;;0.40;0.40;;;8.90;99.90;;;;;;5095633;28;20096;-73
2021/11/15 01:33:22;;;;;;;0.77;0.75;;;8.80;99.90;;;;;;5080227;28;20075;-73
2021/11/15 01:36:06;;;;;;;0.22;0.22;;;8.80;99.90;;;;;;5095339;28;20039;-73
2021/11/15 01:38:51;;;;;;;0.10;0.10;;;8.80;99.90;;;;;;5095620;28;20384;-73
2021/11/15 01:41:36;;;;;;;2.53;1.00;;;8.80;99.90;;;;;;5080052;28;20108;-73
2021/11/15 01:44:20;;;;;;;0.43;0.40;;;8.80;99.90;;;;;;5094432;28;20081;-73
2021/11/15 01:47:06;;;;;;;0.32;0.32;;;8.80;99.90;;;;;;5094815;28;20043;-73
2021/11/15 01:49:51;;;;;;;0.77;0.77;;;8.80;99.90;;;;;;5093861;28;20114;-73
2021/11/15 01:52:37;;;;;;;1.13;1.05;;;8.80;99.90;;;;;;5094079;28;20388;-73
2021/11/15 01:55:24;;;;;;;0.40;0.40;;;8.80;99.90;;;;;;5094897;28;20036;-73
2021/11/15 01:58:12;;;;;;;0.65;0.65;;;8.70;99.90;;;;;;5094591;28;20397;-73
2021/11/15 02:00:59;;;;;;;0.30;0.30;;;8.70;99.90;;;;;;5093984;28;20474;-73
2021/11/15 02:03:43;;;;;;;0.10;0.10;;;8.70;99.90;;;;;;5093832;28;20062;-73
2021/11/15 02:06:28;;;;;;;2.00;1.75;;;8.60;99.90;;;;;;5094870;28;20137;-73
2021/11/15 02:09:13;;;;;;;3.20;1.58;;;8.60;99.90;;;;;;5093611;28;20400;-73
2021/11/15 02:11:57;;;;;;;0.85;0.55;;;8.60;99.90;;;;;;5093778;28;20072;-73
2021/11/15 02:14:41;;;;;;;0.25;0.22;;;8.60;99.90;;;;;;5094664;28;20038;-72
2021/11/15 02:17:26;;;;;;;0.40;0.40;;;8.50;99.90;;;;;;5093226;28;20441;-72
2021/11/15 02:20:26;;;;;;;1.23;1.13;;;8.60;99.90;;;;;;5094488;28;20067;-72
2021/11/15 02:23:11;;;;;;;1.85;1.27;;;8.70;99.90;;;;;;5093967;28;20128;-72
2021/11/15 02:25:58;;;;;;;1.73;1.63;;;8.80;99.90;;;;;;5094239;28;20043;-72
2021/11/15 02:28:47;;;;;;;0.47;0.47;;;8.80;99.90;;;;;;5093237;28;20043;-73
2021/11/15 02:31:31;;;;;;;8.85;0.70;;;9.00;99.90;;;;;;5079109;28;20105;-72
2021/11/15 02:34:16;;;;;;;0.65;0.65;;;9.00;99.90;;;;;;5094088;28;20484;-72
2021/11/15 02:37:01;;;;;;;0.15;0.15;;;9.10;99.90;;;;;;5093261;28;20450;-73
2021/11/15 02:39:45;;;;;;;0.20;0.20;;;9.10;99.90;;;;;;5093202;28;20043;-73
2021/11/15 02:42:31;;;;;;;1.27;1.17;;;9.20;99.90;;;;;;5078819;28;20449;-72
2021/11/15 02:45:19;;;;;;;1.35;1.25;;;9.20;99.90;;;;;;5093267;28;20055;-73
2021/11/15 02:48:05;;;;;;;1.35;1.27;;;9.20;99.90;;;;;;5093998;28;20098;-72
2021/11/15 02:50:50;;;;;;;0.88;0.88;;;9.20;99.90;;;;;;5093785;28;20074;-73
2021/11/15 02:53:34;;;;;;;1.45;1.33;;;9.20;99.90;;;;;;5094087;28;20043;-72
2021/11/15 02:56:19;;;;;;;1.33;1.27;;;9.20;99.90;;;;;;5093742;28;20051;-73
2021/11/15 02:59:03;;;;;;;0.93;0.93;;;9.30;99.90;;;;;;5094187;28;20035;-72
2021/11/15 03:01:48;;;;;;;1.17;1.10;;;9.20;99.90;;;;;;5093125;28;20127;-72
2021/11/15 03:04:32;;;;;;;0.38;0.38;;;9.30;99.90;;;;;;5093775;28;20070;-72
2021/11/15 03:07:17;;;;;;;0.22;0.22;;;9.30;99.90;;;;;;5092268;28;20111;-72
2021/11/15 03:10:03;;;;;;;1.65;1.20;;;9.20;99.90;;;;;;5092548;28;20115;-72
2021/11/15 03:12:48;;;;;;;2.20;2.00;;;9.20;99.90;;;;;;5092604;28;20043;-72
2021/11/15 03:15:38;;;;;;;0.47;0.47;;;9.20;99.90;;;;;;5092396;28;20621;-72
2021/11/15 03:18:27;;;;;;;1.10;1.10;;;9.20;99.90;;;;;;5093350;28;20039;-73
2021/11/15 03:21:25;;;;;;;0.55;0.55;;;9.20;99.90;;;;;;5092975;28;20089;-73
2021/11/15 03:24:09;;;;;;;1.20;1.10;;;9.20;99.90;;;;;;5093208;28;20048;-73
2021/11/15 03:26:54;;;;;;;0.10;0.10;;;9.20;99.90;;;;;;5093085;28;20043;-73
2021/11/15 03:29:38;;;;;;;1.08;1.00;;;9.20;99.90;;;;;;5093219;28;20565;-73
2021/11/15 03:32:25;;;;;;;0.10;0.10;;;9.20;99.90;;;;;;5093520;28;20397;-73
2021/11/15 03:35:09;;;;;;;0.38;0.38;;;9.20;99.90;;;;;;5093143;28;20087;-73
2021/11/15 03:37:54;;;;;;;12.10;1.23;;;9.20;99.90;;;;;;5093165;28;20054;-73
2021/11/15 03:40:39;;;;;;;0.10;0.10;;;9.20;99.90;;;;;;5092105;28;20047;-73
2021/11/15 03:43:24;;;;;;;1.23;1.17;;;9.20;99.90;;;;;;5091985;28;20035;-73
2021/11/15 03:46:08;;;;;;;7.22;3.20;;;9.20;99.90;;;;;;5091815;28;20523;-73
2021/11/15 03:48:53;;;;;;;0.20;0.20;;;9.20;99.90;;;;;;5092019;28;20121;-73
2021/11/15 03:51:39;;;;;;;0.38;0.38;;;9.20;99.90;;;;;;5093136;28;20074;-73
2021/11/15 03:54:23;;;;;;;1.50;1.20;;;9.10;99.90;;;;;;5092721;28;20038;-73
2021/11/15 03:57:08;;;;;;;1.42;1.33;;;9.10;99.90;;;;;;5093108;28;20535;-73
2021/11/15 03:59:53;;;;;;;5.00;0.73;;;9.20;99.90;;;;;;5091815;28;20054;-72
2021/11/15 04:02:38;;;;;;;0.35;0.35;;;9.20;99.90;;;;;;5091593;28;20115;-72
2021/11/15 04:05:27;;;;;;;0.25;0.25;;;9.20;99.90;;;;;;5091450;28;20610;-72
2021/11/15 04:08:12;;;;;;;0.40;0.40;;;9.20;99.90;;;;;;5092680;28;20089;-73
2021/11/15 04:10:57;;;;;;;0.88;0.88;;;9.10;99.90;;;;;;5077750;28;20443;-72
2021/11/15 04:13:41;;;;;;;0.30;0.30;;;9.10;99.90;;;;;;5092537;28;20038;-73
2021/11/15 04:16:26;;;;;;;0.30;0.30;;;9.10;99.90;;;;;;5092566;28;20051;-73
2021/11/15 04:19:16;;;;;;;4.60;1.40;;;9.10;99.90;;;;;;5091432;28;20043;-72
2021/11/15 04:22:01;;;;;;;0.20;0.20;;;9.10;99.90;;;;;;5092442;28;20431;-72
2021/11/15 04:24:46;;;;;;;0.52;0.52;;;9.10;99.90;;;;;;5091819;28;20088;-73
2021/11/15 04:27:31;;;;;;;0.20;0.20;;;9.10;99.90;;;;;;5092464;28;20069;-73
2021/11/15 04:30:16;;;;;;;0.20;0.20;;;9.10;99.90;;;;;;5092503;28;20507;-73
2021/11/15 04:33:03;;;;;;;0.60;0.38;;;9.20;99.90;;;;;;5092578;28;20035;-72
2021/11/15 04:35:47;;;;;;;2.03;1.13;;;9.20;99.90;;;;;;5091457;28;20192;-72
2021/11/15 04:38:32;;;;;;;5.50;1.73;;;9.20;99.90;;;;;;5092682;28;20035;-72
2021/11/15 04:41:18;;;;;;;0.32;0.17;;;9.20;99.90;;;;;;5091353;28;20039;-72
2021/11/15 04:44:03;;;;;;;1.85;0.75;;;9.20;99.90;;;;;;5091373;28;20044;-73
2021/11/15 04:46:47;;;;;;;4.35;1.45;;;9.20;99.90;;;;;;5090973;28;20061;-72
2021/11/15 04:49:32;;;;;;;0.65;0.65;;;9.20;99.90;;;;;;5087902;28;20095;-73
2021/11/15 04:52:16;;;;;;;1.73;1.63;;;9.20;99.90;;;;;;5080950;28;20500;-72
2021/11/15 04:55:09;;;;;;;1.85;1.75;;;9.20;99.90;;;;;;5071323;28;20098;-72
2021/11/15 04:57:55;;;;;;;0.43;0.43;;;9.20;99.90;;;;;;5088172;28;20046;-72
2021/11/15 05:00:40;;;;;;;0.10;0.10;;;9.20;99.90;;;;;;5085462;28;20109;-71
2021/11/15 05:03:24;;;;;;;0.32;0.32;;;9.20;99.90;;;;;;5088695;28;20066;-71
2021/11/15 05:06:09;;;;;;;0.90;0.90;;;9.10;99.90;;;;;;5079944;28;20473;-71
2021/11/15 05:08:54;;;;;;;0.35;0.35;;;9.10;99.90;;;;;;5080747;28;20036;-71
2021/11/15 05:11:38;;;;;;;0.32;0.32;;;9.10;99.90;;;;;;5084876;28;20574;-71
2021/11/15 05:14:22;;;;;;;0.50;0.35;;;9.00;99.90;;;;;;5071503;28;20560;-72
2021/11/15 05:17:07;;;;;;;6.75;2.28;;;9.10;99.90;;;;;;5071581;28;20402;-72
2021/11/15 05:19:52;;;;;;;0.50;0.50;;;9.30;99.90;;;;;;5079207;28;20148;-71
2021/11/15 05:22:37;;;;;;;1.27;1.08;;;9.30;99.90;;;;;;5091566;28;20098;-71
2021/11/15 05:25:22;;;;;;;0.10;0.10;;;9.10;99.90;;;;;;5092907;28;20404;-73
2021/11/15 05:28:07;;;;;;;1.98;1.55;;;9.10;99.90;;;;;;5095492;28;20071;-72
2021/11/15 05:30:51;;;;;;;2.22;2.05;;;9.10;99.90;;;;;;5095724;28;20035;-72
2021/11/15 05:33:36;;;;;;;0.20;0.20;;;9.10;99.90;;;;;;5095403;28;20042;-72
2021/11/15 05:36:20;;;;;;;0.40;0.40;;;9.00;99.90;;;;;;5095715;28;20075;-72
2021/11/15 05:39:06;;;;;;;0.30;0.30;;;9.00;99.90;;;;;;5095327;28;20051;-74
2021/11/15 05:41:51;;;;;;;0.25;0.25;;;9.00;99.90;;;;;;5094248;28;20396;-72
2021/11/15 05:44:36;;;;;;;0.43;0.43;;;9.00;99.90;;;;;;5095153;28;20067;-74
2021/11/15 05:47:20;;;;;;;2.17;0.63;;;8.90;99.90;;;;;;5079823;28;20055;-72
2021/11/15 05:50:06;;;;;;;0.30;0.30;;;8.90;99.90;;;;;;5088107;28;20405;-72
2021/11/15 05:52:51;;;;;;;0.93;0.93;;;8.90;99.90;;;;;;5073943;28;20039;-72
2021/11/15 05:55:35;;;;;;;0.47;0.47;;;8.90;99.90;;;;;;5073884;28;20501;-72
2021/11/15 05:58:20;;;;;;;0.15;0.15;;;9.00;99.90;;;;;;5074821;28;20071;-72
2021/11/15 06:01:04;;;;;;;1.92;0.85;;;8.90;99.90;;;;;;5074028;28;20067;-72
2021/11/15 06:03:49;;;;;;;1.85;1.60;;;9.00;99.90;;;;;;5074608;28;20075;-72
2021/11/15 06:06:34;;;;;;;0.10;0.10;;;9.00;99.90;;;;;;5074312;28;20079;-71
2021/11/15 06:09:18;;;;;;;0.20;0.20;;;8.90;99.90;;;;;;5074402;28;20113;-71
2021/11/15 06:12:04;;;;;;;3.67;1.63;;;8.90;99.90;;;;;;5074529;28;20150;-72
2021/11/15 06:14:48;;;;;;;0.43;0.43;;;8.90;99.90;;;;;;5074192;28;20039;-71
2021/11/15 06:17:33;;;;;;;2.08;1.58;;;8.90;99.90;;;;;;5059059;28;20520;-72
2021/11/15 06:20:19;;;;;;;0.65;0.63;;;8.80;99.90;;;;;;5085438;28;20039;-72
2021/11/15 06:23:04;;;;;;;0.10;0.10;;;8.90;99.90;;;;;;5093121;28;20077;-72
2021/11/15 06:25:48;;;;;;;0.10;0.10;;;8.80;99.90;;;;;;5093416;28;20065;-72
2021/11/15 06:28:33;;;;;;;3.70;1.33;;;8.80;99.90;;;;;;5094265;28;20046;-71
2021/11/15 06:31:18;;;;;;;0.75;0.75;;;8.80;99.90;;;;;;5086162;28;20043;-70
2021/11/15 06:34:03;;;;;;;0.63;0.50;;;8.80;99.90;;;;;;5072742;28;20093;-71
2021/11/15 06:36:47;;;;;;;0.00;0.00;;;8.80;99.90;;;;;;5077013;28;20043;-71
2021/11/15 06:39:33;;;;;;;3.10;2.20;;;8.90;99.90;;;;;;5092985;28;20082;-70
2021/11/15 06:42:17;;;;;;;0.38;0.38;;;8.90;99.90;;;;;;5093860;28;20093;-71
2021/11/15 06:45:06;;;;;;;0.75;0.75;;;8.90;99.90;;;;;;5093555;28;20086;-70
2021/11/15 06:47:51;;;;;;;0.30;0.30;;;8.90;99.90;;;;;;5092789;28;20149;-70
2021/11/15 06:50:35;;;;;;;0.32;0.32;;;8.90;99.90;;;;;;5093389;28;20035;-71
2021/11/15 06:53:20;;;;;;;0.85;0.85;;;8.90;99.90;;;;;;5093611;28;20126;-71
2021/11/15 06:56:06;;;;;;;2.20;1.95;;;8.90;99.90;;;;;;5092407;28;20089;-71
2021/11/15 06:58:50;;;;;;;0.10;0.10;;;8.90;99.90;;;;;;5078399;28;20051;-70
2021/11/15 07:01:38;;;;;;;0.60;0.60;;;8.90;99.90;;;;;;5093303;28;20444;-70
2021/11/15 07:04:22;;;;;;;1.67;0.65;;;9.00;99.90;;;;;;5092345;28;20046;-70
2021/11/15 07:07:06;;;;;;;0.45;0.45;;;9.00;99.90;;;;;;5093097;28;20173;-71
2021/11/15 07:09:50;;;;;;;0.20;0.20;;;9.00;99.90;;;;;;5093457;28;20039;-71
2021/11/15 07:12:35;;;;;;;3.72;3.00;;;9.00;99.90;;;;;;5092389;28;20097;-71
2021/11/15 07:15:20;;;;;;;0.38;0.38;;;9.10;99.90;;;;;;5093463;28;20050;-70
2021/11/15 07:18:04;;;;;;;0.73;0.70;;;9.10;99.90;;;;;;5093252;28;20030;-71
2021/11/15 07:20:49;;;;;;;0.22;0.22;;;9.00;99.90;;;;;;5091939;28;20061;-70
2021/11/15 07:23:34;;;;;;;0.77;0.77;;;8.90;99.90;;;;;;5092766;28;20177;-70
2021/11/15 07:26:19;;;;;;;0.90;0.77;;;8.90;99.90;;;;;;5092959;28;20051;-71
2021/11/15 07:29:03;;;;;;;1.55;1.45;;;8.90;99.90;;;;;;5092164;28;20123;-70
2021/11/15 07:31:48;;;;;;;0.13;0.13;;;8.90;99.90;;;;;;5092763;28;20097;-70
2021/11/15 07:34:32;;;;;;;0.00;0.00;;;8.80;99.90;;;;;;5091918;28;20400;-70
2021/11/15 07:37:17;;;;;;;1.65;0.93;;;8.90;99.90;;;;;;5077865;28;20097;-70
2021/11/15 07:40:09;;;;;;;0.70;0.70;;;8.80;99.90;;;;;;5093383;28;20035;-71
2021/11/15 07:42:56;;;;;;;0.05;0.05;;;8.80;99.90;;;;;;5092907;28;20096;-71
2021/11/15 07:45:44;;;;;;;1.17;1.10;;;8.90;99.90;;;;;;5091755;28;20089;-69
2021/11/15 07:48:30;;;;;;;1.05;0.80;;;8.90;99.90;;;;;;5092395;28;20548;-71
2021/11/15 07:51:14;;;;;;;0.68;0.68;;;8.90;99.90;;;;;;5092073;28;20093;-71
2021/11/15 07:53:58;;;;;;;0.55;0.25;;;8.90;99.90;;;;;;5092605;28;20051;-71
2021/11/15 07:56:43;;;;;;;2.30;0.93;;;8.90;99.90;;;;;;5093086;28;20134;-71
2021/11/15 07:59:28;;;;;;;0.30;0.30;;;8.90;99.90;;;;;;5092764;28;20146;-71
2021/11/15 08:02:13;;;;;;;0.28;0.28;;;8.80;99.90;;;;;;5092734;28;20051;-71
2021/11/15 08:04:57;;;;;;;0.85;0.35;;;8.80;99.90;;;;;;5091618;28;20400;-71
2021/11/15 08:07:42;;;;;;;0.30;0.30;;;8.90;99.90;;;;;;5092429;28;20118;-71
2021/11/15 08:10:27;;;;;;;5.72;1.08;;;8.80;99.90;;;;;;5091667;28;20120;-71
2021/11/15 08:13:12;;;;;;;0.22;0.22;;;8.80;99.90;;;;;;5092477;28;20490;-71
2021/11/15 08:15:56;;;;;;;0.17;0.17;;;8.80;99.90;;;;;;5092997;28;20074;-71
2021/11/15 08:18:41;;;;;;;2.20;0.93;;;8.90;99.90;;;;;;5092397;28;20086;-71
2021/11/15 08:21:26;;;;;;;0.68;0.68;;;8.90;99.90;;;;;;5092002;28;20042;-71
2021/11/15 08:24:44;;;;;;;0.50;0.50;;;8.90;99.90;;;;;;5091569;28;20047;-71
2021/11/15 08:27:30;;;;;;;0.43;0.43;;;8.90;99.90;;;;;;5088449;28;20047;-72
2021/11/15 08:30:15;;;;;;;0.10;0.10;;;8.90;99.90;;;;;;5092507;28;20051;-71
2021/11/15 08:33:00;;;;;;;0.50;0.50;;;8.80;99.90;;;;;;5092467;28;20039;-71
2021/11/15 08:35:44;;;;;;;1.52;1.42;;;8.80;99.90;;;;;;5091152;28;20078;-70
2021/11/15 08:38:54;;;;;;;0.25;0.25;;;8.80;99.90;;;;;;5092318;28;20062;-70
2021/11/15 08:41:46;;;;;;;0.40;0.40;;;8.90;99.90;;;;;;5091261;28;20054;-72
2021/11/15 08:44:33;;;;;;;2.08;1.40;;;8.90;99.90;;;;;;5091202;28;20059;-71
2021/11/15 08:47:17;;;;;;;0.30;0.30;;;8.90;99.90;;;;;;5091983;28;20043;-71
2021/11/15 08:50:02;;;;;;;0.08;0.08;;;8.90;99.90;;;;;;5091739;28;20035;-70
2021/11/15 08:52:46;;;;;;;0.63;0.63;;;8.80;99.90;;;;;;5091076;28;20097;-70
2021/11/15 08:55:32;;;;;;;0.10;0.10;;;8.80;99.90;;;;;;5090963;28;20034;-71
2021/11/15 08:58:16;;;;;;;1.52;0.65;;;8.80;99.90;;;;;;5091871;28;20097;-70
2021/11/15 09:01:01;;;;;;;1.40;1.30;;;8.90;99.90;;;;;;5074585;28;20043;-71
2021/11/15 09:03:51;;;;;;;0.10;0.10;;;8.90;99.90;;;;;;5088831;28;20071;-70
2021/11/15 09:06:37;;;;;;;0.40;0.40;;;8.90;99.90;;;;;;5088151;28;20038;-70
2021/11/15 09:09:27;;;;;;;0.47;0.47;;;8.90;99.90;;;;;;5074469;28;20090;-69
2021/11/15 09:12:11;;;;;;;2.17;1.75;;;8.90;99.90;;;;;;5075514;28;20046;-69
2021/11/15 09:14:57;;;;;;;1.95;0.40;;;8.90;99.90;;;;;;5074362;28;20039;-69
2021/11/15 09:17:45;;;;;;;0.17;0.17;;;8.90;99.90;;;;;;5089075;28;20036;-69
2021/11/15 09:20:30;;;;;;;0.63;0.63;;;8.90;99.90;;;;;;5075361;28;20546;-69
2021/11/15 09:23:16;;;;;;;0.10;0.10;;;8.90;99.90;;;;;;5088320;28;20437;-69
2021/11/15 09:26:02;;;;;;;0.13;0.13;;;8.90;99.90;;;;;;5075299;28;20082;-70
2021/11/15 09:28:48;;;;;;;0.10;0.10;;;8.90;99.90;;;;;;5088416;28;20040;-70
2021/11/15 09:31:34;;;;;;;0.10;0.10;;;8.90;99.90;;;;;;5075184;28;20048;-70
2021/11/15 09:34:19;;;;;;;0.10;0.10;;;8.90;99.90;;;;;;5088458;28;20141;-70
2021/11/15 09:37:03;;;;;;;0.40;0.40;;;8.90;99.90;;;;;;5075089;28;20044;-69
2021/11/15 09:39:50;;;;;;;1.17;1.05;;;8.90;99.90;;;;;;5074932;28;20442;-70
2021/11/15 09:42:36;;;;;;;0.20;0.20;;;8.90;99.90;;;;;;5074998;28;20090;-70
2021/11/15 09:45:20;;;;;;;0.00;0.00;;;8.90;99.90;;;;;;5074927;28;20446;-69
2021/11/15 09:48:05;;;;;;;0.10;0.10;;;8.90;99.90;;;;;;5088313;28;20124;-69
2021/11/15 09:50:50;;;;;;;2.00;0.63;;;8.90;99.90;;;;;;5087801;28;20086;-69
2021/11/15 09:53:36;;;;;;;0.00;0.00;;;8.90;99.90;;;;;;5074679;28;20040;-69
2021/11/15 09:56:23;;;;;;;0.15;0.15;;;8.90;99.90;;;;;;5074804;28;20040;-69
2021/11/15 09:59:11;;;;;;;0.47;0.43;;;8.90;99.90;;;;;;5073552;28;20047;-69
2021/11/15 10:01:58;;;;;;;0.90;0.63;;;8.90;99.90;;;;;;5088160;28;20485;-69
2021/11/15 10:04:43;;;;;;;0.30;0.30;;;8.90;99.90;;;;;;5074399;28;20090;-69
2021/11/15 10:07:43;;;;;;;0.00;0.00;;;9.00;99.90;;;;;;5074238;28;20071;-69
2021/11/15 10:10:59;;;;;;;1.75;0.90;;;8.90;99.90;;;;;;5074121;28;20043;-69
2021/11/15 10:13:43;;;;;;;0.82;0.75;;;8.90;99.90;;;;;;5074419;28;20411;-69
2021/11/15 10:16:28;;;;;;;0.70;0.70;;;8.90;99.90;;;;;;5087745;28;20071;-69
2021/11/15 10:19:13;;;;;;;0.30;0.30;;;9.00;99.90;;;;;;5074347;28;20047;-69
2021/11/15 10:22:07;;;;;;;1.15;0.75;;;9.00;99.90;;;;;;5074120;28;20078;-68
2021/11/15 10:24:52;;;;;;;1.98;0.80;;;9.00;99.90;;;;;;5072955;28;20055;-69
2021/11/15 10:27:38;;;;;;;0.08;0.08;;;9.00;99.90;;;;;;5072945;28;20043;-69
2021/11/15 10:30:32;;;;;;;1.02;1.02;;;9.00;99.90;;;;;;5087441;28;20071;-69
2021/11/15 10:33:18;;;;;;;2.22;1.75;;;9.00;99.90;;;;;;5085969;28;20043;-69
2021/11/15 10:36:03;;;;;;;1.25;0.95;;;9.00;99.90;;;;;;5074151;28;20074;-69
2021/11/15 10:38:53;;;;;;;0.22;0.22;;;9.00;99.90;;;;;;5086936;28;20078;-69
2021/11/15 10:41:37;;;;;;;0.70;0.70;;;9.10;99.90;;;;;;5086547;28;20036;-69
2021/11/15 10:44:22;;;;;;;5.75;1.75;;;9.10;99.90;;;;;;5087412;28;20075;-69
2021/11/15 10:47:06;;;;;;;1.10;1.05;;;9.00;99.90;;;;;;5086853;28;20116;-69
2021/11/15 10:50:22;;;;;;;0.15;0.15;;;9.10;99.90;;;;;;5073767;28;20055;-69
2021/11/15 10:53:20;;;;;;;0.32;0.32;;;9.10;99.90;;;;;;5088959;28;20679;-69
2021/11/15 10:56:07;;;;;;;1.58;1.23;;;9.10;99.90;;;;;;5080426;28;20043;-69
2021/11/15 10:58:52;;;;;;;0.00;0.00;;;9.10;99.90;;;;;;5092435;28;20031;-69
2021/11/15 11:01:38;;;;;;;0.77;0.65;;;9.10;99.90;;;;;;5072364;28;20111;-69
2021/11/15 11:04:24;;;;;;;0.90;0.85;;;9.00;99.90;;;;;;5073388;28;20047;-69
2021/11/15 11:07:20;;;;;;;0.10;0.10;;;9.00;99.90;;;;;;5072941;28;20516;-70
2021/11/15 11:10:07;;;;;;;0.40;0.40;;;9.00;99.90;;;;;;5072321;28;20044;-70
2021/11/15 11:13:04;;;;;;;1.73;0.90;;;9.00;99.90;;;;;;5071995;28;20043;-70
2021/11/15 11:15:50;;;;;;;0.30;0.30;;;9.10;99.90;;;;;;5072044;28;20043;-69
2021/11/15 11:18:37;;;;;;;0.10;0.10;;;9.00;99.90;;;;;;5072043;28;20499;-69
2021/11/15 11:21:45;;;;;;;0.10;0.10;;;9.10;99.90;;;;;;5073353;28;20483;-70
2021/11/15 11:27:28;;;;;;;0.00;0.00;;;9.00;99.90;;;;;;5071882;28;20089;-70
2021/11/15 11:30:12;;;;;;;0.00;0.00;;;9.10;99.90;;;;;;5071943;28;20443;-70
2021/11/15 11:32:57;;;;;;;0.10;0.10;;;9.00;99.90;;;;;;5072792;28;20036;-70
2021/11/15 11:35:42;;;;;;;0.00;0.00;;;8.90;99.90;;;;;;5071928;28;20058;-70
2021/11/15 11:38:27;;;;;;;0.00;0.00;;;8.90;99.90;;;;;;5071882;28;20043;-70
2021/11/15 11:41:15;;;;;;;0.28;0.28;;;8.90;99.90;;;;;;5071623;28;20385;-70
2021/11/15 11:44:02;;;;;;;0.28;0.28;;;8.80;99.90;;;;;;5071544;28;20052;-70
2021/11/15 11:46:47;;;;;;;0.15;0.15;;;8.80;99.90;;;;;;5071141;28;20130;-70
2021/11/15 11:49:34;;;;;;;2.65;1.90;;;8.80;99.90;;;;;;5073066;28;20120;-70
2021/11/15 11:52:32;;;;;;;0.00;0.00;;;8.80;99.90;;;;;;5071620;28;20043;-70
2021/11/15 11:55:21;;;;;;;7.70;0.60;;;8.80;99.90;;;;;;5071706;28;20037;-70
2021/11/15 11:58:31;;;;;;;0.52;0.52;;;8.80;99.90;;;;;;5072518;28;20048;-70
2021/11/15 12:01:24;;;;;;;0.00;0.00;;;8.80;99.90;;;;;;5071284;28;20035;-70
2021/11/15 12:04:19;;;;;;;2.03;1.92;;;8.90;99.90;;;;;;5072416;28;20193;-70
2021/11/15 12:07:37;;;;;;;0.20;0.20;;;8.80;99.90;;;;;;5070889;28;20090;-70
2021/11/15 12:10:55;;;;;;;2.30;1.25;;;8.80;99.90;;;;;;5072537;28;20047;-70
2021/11/15 12:13:46;;;;;;;0.10;0.10;;;8.70;99.90;;;;;;5071343;28;20578;-70
2021/11/15 12:17:02;;;;;;;0.20;0.20;;;8.80;99.90;;;;;;5072361;28;20070;-70
2021/11/15 12:19:52;;;;;;;0.00;0.00;;;8.80;99.90;;;;;;5072228;28;20043;-70
2021/11/15 12:22:42;;;;;;;0.10;0.10;;;8.80;99.90;;;;;;5071730;28;20561;-70
2021/11/15 12:25:28;;;;;;;0.17;0.17;;;8.80;99.90;;;;;;5071425;28;20073;-70
2021/11/15 12:28:33;;;;;;;0.00;0.00;;;8.80;99.90;;;;;;5071412;28;20043;-70
2021/11/15 12:31:38;;;;;;;0.40;0.40;;;8.80;99.90;;;;;;5071333;28;20066;-70
2021/11/15 12:34:24;;;;;;;0.80;0.80;;;8.80;99.90;;;;;;5073758;28;20078;-70
2021/11/15 12:37:14;;;;;;;1.77;0.47;;;8.80;99.90;;;;;;5089827;28;20385;-70
2021/11/15 12:39:58;;;;;;;3.55;1.52;;;8.80;99.90;;;;;;5076465;28;20059;-70
2021/11/15 12:42:43;;;;;;;0.10;0.10;;;8.90;99.90;;;;;;5076029;28;20130;-70
2021/11/15 12:45:28;;;;;;;7.10;0.90;;;8.90;99.90;;;;;;5076051;28;20059;-69
2021/11/15 12:48:40;;;;;;;3.10;1.45;;;8.90;99.90;;;;;;5074963;28;20570;-69
2021/11/15 12:51:25;;;;;;;0.70;0.70;;;8.90;99.90;;;;;;5086300;28;20035;-69
2021/11/15 12:54:09;;;;;;;1.08;1.02;;;8.90;99.90;;;;;;5096079;28;20047;-69
2021/11/15 12:56:54;;;;;;;0.40;0.40;;;8.90;99.90;;;;;;5096088;28;20539;-69
2021/11/15 12:59:39;;;;;;;0.40;0.40;;;8.80;99.90;;;;;;5094862;28;20127;-69
2021/11/15 13:02:25;;;;;;;0.20;0.20;;;8.90;99.90;;;;;;5096115;28;20039;-69
2021/11/15 13:05:10;;;;;;;0.65;0.65;;;8.80;99.90;;;;;;5080569;28;20047;-69
2021/11/15 13:07:57;;;;;;;1.27;0.63;;;8.90;99.90;;;;;;5109133;28;20427;-69
2021/11/15 13:10:47;;;;;;;0.68;0.68;;;8.90;99.90;;;;;;5080299;28;20047;-69
2021/11/15 13:13:32;;;;;;;0.68;0.68;;;8.90;99.90;;;;;;5094535;28;20164;-69
2021/11/15 13:16:18;;;;;;;0.80;0.80;;;8.90;99.90;;;;;;5095740;28;20066;-69
2021/11/15 13:19:03;;;;;;;1.25;1.15;;;8.90;99.90;;;;;;5095982;28;20089;-69
2021/11/15 13:21:48;;;;;;;1.95;1.08;;;8.90;99.90;;;;;;5095238;28;20389;-70
2021/11/15 13:24:32;;;;;;;0.20;0.20;;;8.90;99.90;;;;;;5094304;28;20035;-70
2021/11/15 13:27:18;;;;;;;0.20;0.20;;;8.90;99.90;;;;;;5095317;28;20042;-71
2021/11/15 13:30:09;;;;;;;0.75;0.75;;;8.90;99.90;;;;;;5094404;28;20039;-70
2021/11/15 13:32:58;;;;;;;0.93;0.88;;;8.80;99.90;;;;;;5094440;28;20050;-69
2021/11/15 13:35:42;;;;;;;0.20;0.20;;;8.80;99.90;;;;;;5094265;28;20055;-69
2021/11/15 13:38:27;;;;;;;1.30;1.20;;;8.80;99.90;;;;;;5079869;28;20473;-69
2021/11/15 13:41:12;;;;;;;0.98;0.98;;;8.70;99.90;;;;;;5095243;28;20043;-69
2021/11/15 13:43:59;;;;;;;1.40;1.30;;;8.70;99.90;;;;;;5094850;28;20081;-69
2021/11/15 13:46:45;;;;;;;1.70;1.60;;;8.80;99.90;;;;;;5094650;28;20043;-69
2021/11/15 13:49:34;;;;;;;1.33;1.30;;;8.80;99.90;;;;;;5094068;28;20039;-69
2021/11/15 13:52:19;;;;;;;0.30;0.30;;;8.80;99.90;;;;;;5094828;28;20039;-69
2021/11/15 13:55:04;;;;;;;0.75;0.73;;;8.70;99.90;;;;;;5093577;28;20115;-69
2021/11/15 13:57:48;;;;;;;1.05;0.98;;;8.70;99.90;;;;;;5094755;28;20126;-69
2021/11/15 14:00:33;;;;;;;1.95;1.77;;;8.60;99.90;;;;;;5094615;28;20412;-69
2021/11/15 14:03:18;;;;;;;0.10;0.10;;;8.60;99.90;;;;;;5093288;28;20097;-69
2021/11/15 14:06:03;;;;;;;3.72;2.22;;;8.60;99.90;;;;;;5094189;28;20396;-69
2021/11/15 14:08:48;;;;;;;0.35;0.35;;;8.70;99.90;;;;;;5094328;28;20357;-69
2021/11/15 14:11:32;;;;;;;1.50;0.90;;;8.60;99.90;;;;;;5093445;28;20051;-69
2021/11/15 14:14:18;;;;;;;0.32;0.32;;;8.70;99.90;;;;;;5095012;28;20137;-68
2021/11/15 14:17:03;;;;;;;1.27;1.20;;;8.60;99.90;;;;;;5093479;28;20396;-69
2021/11/15 14:19:47;;;;;;;0.63;0.63;;;8.60;99.90;;;;;;5094514;28;20109;-68
2021/11/15 14:22:32;;;;;;;0.35;0.35;;;8.60;99.90;;;;;;5094268;28;20110;-70
2021/11/15 14:25:16;;;;;;;0.40;0.40;;;8.50;99.90;;;;;;5093504;28;20043;-70
2021/11/15 14:28:06;;;;;;;0.10;0.10;;;8.60;99.90;;;;;;5094087;28;20051;-70
2021/11/15 14:30:51;;;;;;;22.08;1.17;;;8.60;99.90;;;;;;5093244;28;20051;-70
2021/11/15 14:33:37;;;;;;;0.25;0.25;;;8.60;99.90;;;;;;5094293;28;20119;-70
2021/11/15 14:36:21;;;;;;;3.92;3.60;;;8.60;99.90;;;;;;5094099;28;20436;-70
2021/11/15 14:39:06;;;;;;;0.50;0.50;;;8.60;99.90;;;;;;5093050;28;20534;-70
2021/11/15 14:41:51;;;;;;;0.70;0.70;;;8.50;99.90;;;;;;5093038;28;20035;-71
2021/11/15 14:44:37;;;;;;;0.93;0.93;;;8.60;99.90;;;;;;5093037;28;20163;-70